Cervello, Spain
Current Conditions -  °F | °C
As of 7:00 PM on Friday 24 Oct 2014 (Local Time) from LEBL Reporting Station
Clear Clear  
Wind Chill: 72°   Ceiling: Unl
Heat Index: 72°   Visibility: 6mi
Dew Point: 57°   Wind: 3mph
Humidity: 60%   Direction: 200°SSW
Pressure: 30"   Gusts: NA
Location:  41.4°N, 1.96°E
Report Text: LEBL 241700Z 20003KT CAVOK 22/14 Q1016 NOSIG
Loading
Personal Weather Stations






























Interactive Weather Map
Tropical Storm Tracking
New forecast layout! Learn more

10-Day Weather Forecast

Advertisements
Track Severe Weather on mobile